createdAt,value
2023-11-24T00:02:02.461Z,95377.06
2023-11-24T00:04:29.302Z,95361.13
2023-11-24T00:06:57.546Z,95363.09
2023-11-24T00:09:30.596Z,95358.44
2023-11-24T00:11:59.971Z,95355.75
2023-11-24T00:14:26.859Z,95354.31
2023-11-24T00:16:53.644Z,95352.91
2023-11-24T00:19:20.698Z,95352.47
2023-11-24T00:21:51.259Z,95348.78
2023-11-24T00:24:18.102Z,95339.31
2023-11-24T00:26:44.784Z,95327.91
2023-11-24T00:29:11.998Z,95320.31
2023-11-24T00:31:38.769Z,95337.88
2023-11-24T00:34:06.374Z,95334.88
2023-11-24T00:36:33.760Z,95328.53
2023-11-24T00:39:00.494Z,95321.00
2023-11-24T00:41:29.249Z,95315.03
2023-11-24T00:43:56.104Z,95307.63
2023-11-24T00:46:23.293Z,95302.72
2023-11-24T00:48:50.144Z,95300.00
2023-11-24T00:51:17.078Z,95286.31
2023-11-24T00:53:43.792Z,95266.34
2023-11-24T00:56:10.552Z,95306.44
2023-11-24T00:58:37.293Z,95298.25
2023-11-24T01:01:04.996Z,95302.94
2023-11-24T01:03:32.412Z,95309.09
2023-11-24T01:05:59.340Z,95312.31
2023-11-24T01:08:26.574Z,95309.34
2023-11-24T01:10:57.931Z,95316.31
2023-11-24T01:13:26.012Z,95290.44
2023-11-24T01:15:52.811Z,95285.28
2023-11-24T01:18:19.755Z,95259.25
2023-11-24T01:20:46.847Z,95262.00
2023-11-24T01:23:13.618Z,95274.78
2023-11-24T01:25:40.341Z,95275.56
2023-11-24T01:28:07.530Z,95262.78
2023-11-24T01:30:35.370Z,95251.81
2023-11-24T01:33:02.173Z,95243.38
2023-11-24T01:35:29.354Z,95246.78
2023-11-24T01:37:56.010Z,95248.09
2023-11-24T01:40:22.694Z,95244.00
2023-11-24T01:42:50.497Z,95250.13
2023-11-24T01:45:17.259Z,95231.59
2023-11-24T01:47:44.472Z,95233.78
2023-11-24T01:50:12.176Z,95236.31
2023-11-24T01:52:41.665Z,95242.38
2023-11-24T01:55:09.083Z,95233.81
2023-11-24T01:57:36.327Z,95233.22
2023-11-24T02:00:05.455Z,95226.38
2023-11-24T02:02:32.298Z,95225.03
2023-11-24T02:04:59.246Z,95218.03
2023-11-24T02:07:26.243Z,95212.69
2023-11-24T02:09:53.020Z,95184.53
2023-11-24T02:12:19.812Z,95189.00
2023-11-24T02:14:46.518Z,95187.94
2023-11-24T02:17:13.195Z,95192.03
2023-11-24T02:19:39.999Z,95192.38
2023-11-24T02:22:08.018Z,95202.25
2023-11-24T02:24:34.727Z,95181.66
2023-11-24T02:27:01.475Z,95153.06
2023-11-24T02:29:28.165Z,95130.13
2023-11-24T02:31:56.045Z,95154.13
2023-11-24T02:34:23.365Z,95164.78
2023-11-24T02:36:50.054Z,95153.09
2023-11-24T02:39:16.725Z,95161.63
2023-11-24T02:41:43.601Z,95150.94
2023-11-24T02:44:10.276Z,95148.94
2023-11-24T02:46:36.988Z,95126.19
2023-11-24T02:49:03.743Z,95125.38
2023-11-24T02:51:30.631Z,95114.22
2023-11-24T02:53:57.856Z,95116.44
2023-11-24T02:56:24.606Z,95110.78
2023-11-24T02:58:51.386Z,95109.84
2023-11-24T03:01:18.205Z,95100.59
2023-11-24T03:03:45.005Z,95103.94
2023-11-24T03:06:14.300Z,95096.94
2023-11-24T03:08:43.977Z,95089.22
2023-11-24T03:11:10.791Z,95090.31
2023-11-24T03:13:37.587Z,95079.16
2023-11-24T03:16:05.826Z,95085.38
2023-11-24T03:18:32.912Z,95075.72
2023-11-24T03:20:59.703Z,95082.44
2023-11-24T03:23:26.543Z,95077.19
2023-11-24T03:25:53.244Z,95073.25
2023-11-24T03:28:20.677Z,95077.34
2023-11-24T03:30:50.064Z,95085.28
2023-11-24T03:33:16.979Z,95076.03
2023-11-24T03:35:43.736Z,95072.47
2023-11-24T03:38:10.608Z,95075.81
2023-11-24T03:40:37.462Z,95056.78
2023-11-24T03:43:04.456Z,95061.38
2023-11-24T03:45:31.384Z,95055.28
2023-11-24T03:47:58.376Z,95039.97
2023-11-24T03:50:25.104Z,95041.72
2023-11-24T03:52:52.084Z,95039.06
2023-11-24T03:55:20.222Z,95037.59
2023-11-24T03:57:47.789Z,95044.16
2023-11-24T04:00:15.149Z,95035.34
2023-11-24T04:02:43.201Z,95032.09
2023-11-24T04:05:13.194Z,95027.63
2023-11-24T04:07:40.565Z,95023.38
2023-11-24T04:10:11.107Z,95025.22
2023-11-24T04:12:37.902Z,95023.72
2023-11-24T04:15:05.177Z,95034.38
2023-11-24T04:17:32.004Z,95026.97
2023-11-24T04:19:58.897Z,95015.97
2023-11-24T04:22:25.764Z,95035.34
2023-11-24T04:24:52.505Z,95013.28
2023-11-24T04:27:19.195Z,95017.00
2023-11-24T04:29:46.044Z,95018.25
2023-11-24T04:32:12.741Z,95006.47
2023-11-24T04:34:39.451Z,94997.53
2023-11-24T04:37:06.211Z,94998.09
2023-11-24T04:39:33.012Z,94995.09
2023-11-24T04:41:59.726Z,94985.56
2023-11-24T04:44:26.468Z,95001.94
2023-11-24T04:46:53.314Z,94997.25
2023-11-24T04:49:20.927Z,94995.22
2023-11-24T04:51:47.641Z,95003.75
2023-11-24T04:54:14.393Z,94987.44
2023-11-24T04:56:41.066Z,94986.78
2023-11-24T04:59:08.160Z,94981.88
2023-11-24T05:01:34.946Z,94969.47
2023-11-24T05:04:01.940Z,94974.81
2023-11-24T05:06:28.875Z,94955.16
2023-11-24T05:08:55.618Z,94945.06
2023-11-24T05:11:22.857Z,94952.25
2023-11-24T05:13:51.194Z,94942.34
2023-11-24T05:16:18.328Z,94942.59
2023-11-24T05:18:45.209Z,94933.66
2023-11-24T05:21:11.958Z,94931.09
2023-11-24T05:23:38.918Z,94917.88
2023-11-24T05:26:07.378Z,94914.22
2023-11-24T05:28:35.054Z,94913.41
2023-11-24T05:31:07.906Z,94909.25
2023-11-24T05:33:34.886Z,94899.75
2023-11-24T05:36:01.991Z,94895.78
2023-11-24T05:38:34.107Z,94900.88
2023-11-24T05:41:11.089Z,94861.97
2023-11-24T05:43:37.935Z,94891.59
2023-11-24T05:46:04.938Z,94886.97
2023-11-24T05:48:31.668Z,94883.28
2023-11-24T05:50:59.955Z,94883.28
2023-11-24T05:53:27.069Z,94876.19
2023-11-24T05:55:54.178Z,94890.47
2023-11-24T05:58:23.069Z,94885.78
2023-11-24T06:00:50.590Z,94889.91
2023-11-24T06:03:17.638Z,94908.72
2023-11-24T06:05:44.476Z,94888.91
2023-11-24T06:08:12.353Z,94882.84
2023-11-24T06:10:39.563Z,94883.13
2023-11-24T06:13:06.436Z,94883.13
2023-11-24T06:15:33.178Z,94884.50
2023-11-24T06:17:59.907Z,94877.34
2023-11-24T06:20:26.674Z,94879.41
2023-11-24T06:22:53.521Z,94884.22
2023-11-24T06:25:20.251Z,94891.06
2023-11-24T06:27:47.192Z,94885.25
2023-11-24T06:30:14.905Z,94902.47
2023-11-24T06:32:41.716Z,94893.19
2023-11-24T06:35:08.783Z,94899.91
2023-11-24T06:37:35.452Z,94885.88
2023-11-24T06:40:04.564Z,94887.53
2023-11-24T06:42:31.998Z,94868.25
2023-11-24T06:44:58.790Z,94864.88
2023-11-24T06:47:25.684Z,94883.91
2023-11-24T06:49:52.400Z,94885.03
2023-11-24T06:52:19.143Z,94875.72
2023-11-24T06:54:46.279Z,94878.59
2023-11-24T06:57:13.044Z,94867.03
2023-11-24T06:59:39.722Z,94866.00
2023-11-24T07:02:06.546Z,94855.75
2023-11-24T07:04:33.306Z,94846.44
2023-11-24T07:07:00.045Z,94873.38
2023-11-24T07:09:26.881Z,94861.00
2023-11-24T07:11:54.219Z,94862.09
2023-11-24T07:14:21.771Z,94872.91
2023-11-24T07:16:49.120Z,94849.97
2023-11-24T07:19:17.963Z,94868.72
2023-11-24T07:21:44.796Z,94854.50
2023-11-24T07:24:11.539Z,94850.59
2023-11-24T07:26:38.294Z,94851.41
2023-11-24T07:29:05.002Z,94847.47
2023-11-24T07:31:31.756Z,94839.31
2023-11-24T07:33:58.523Z,94853.91
2023-11-24T07:36:25.265Z,94842.81
2023-11-24T07:38:51.941Z,94831.22
2023-11-24T07:41:18.644Z,94831.69
2023-11-24T07:43:45.694Z,94845.19
2023-11-24T07:46:13.009Z,94836.75
2023-11-24T07:48:40.028Z,94830.94
2023-11-24T07:51:07.217Z,94824.88
2023-11-24T07:53:34.655Z,94813.50
2023-11-24T07:56:01.650Z,94825.94
2023-11-24T07:58:31.020Z,94810.06
2023-11-24T08:00:58.134Z,94811.38
2023-11-24T08:03:25.928Z,94812.66
2023-11-24T08:05:53.931Z,94807.34
2023-11-24T08:08:21.587Z,94820.56
2023-11-24T08:10:48.480Z,94821.31
2023-11-24T08:13:15.335Z,94850.34
2023-11-24T08:15:42.211Z,94862.53
2023-11-24T08:18:09.092Z,94854.63
2023-11-24T08:20:35.757Z,94858.72
2023-11-24T08:23:02.493Z,94862.31
2023-11-24T08:25:29.210Z,94849.03
2023-11-24T08:27:55.958Z,94852.69
2023-11-24T08:30:22.619Z,94846.94
2023-11-24T08:32:50.700Z,94831.38
2023-11-24T08:35:17.650Z,94847.56
2023-11-24T08:37:44.631Z,94828.66
2023-11-24T08:40:12.489Z,94827.03
2023-11-24T08:42:40.238Z,94823.28
2023-11-24T08:45:08.092Z,94834.31
2023-11-24T08:47:34.837Z,94837.94
2023-11-24T08:50:01.724Z,94834.16
2023-11-24T08:52:28.481Z,94849.38
2023-11-24T08:54:55.703Z,94848.03
2023-11-24T08:57:22.389Z,94847.00
2023-11-24T08:59:49.049Z,94818.56
2023-11-24T09:02:15.924Z,94825.72
2023-11-24T09:04:42.889Z,94825.72
2023-11-24T09:07:10.479Z,94818.75
2023-11-24T09:09:37.949Z,94821.63
2023-11-24T09:12:06.988Z,94821.13
2023-11-24T09:14:39.645Z,94820.53
2023-11-24T09:17:06.636Z,94805.31
2023-11-24T09:19:35.349Z,94802.56
2023-11-24T09:22:05.132Z,94797.19
2023-11-24T09:24:31.952Z,94802.88
2023-11-24T09:26:58.668Z,94806.84
2023-11-24T09:29:27.118Z,94813.44
2023-11-24T09:31:53.981Z,94783.13
2023-11-24T09:34:20.965Z,94803.41
2023-11-24T09:36:48.107Z,94798.41
2023-11-24T09:39:18.541Z,94776.59
2023-11-24T09:41:52.560Z,94797.66
2023-11-24T09:44:19.924Z,94783.19
2023-11-24T09:46:51.961Z,94798.53
2023-11-24T09:49:21.817Z,94793.53
2023-11-24T09:51:49.194Z,94790.03
2023-11-24T09:54:16.211Z,94784.72
2023-11-24T09:56:45.029Z,94786.41
2023-11-24T09:59:11.897Z,94767.88
2023-11-24T10:01:39.090Z,94780.31
2023-11-24T10:04:07.158Z,94777.94
2023-11-24T10:06:36.724Z,94769.13
2023-11-24T10:09:06.952Z,94755.94
2023-11-24T10:11:36.975Z,94758.88
2023-11-24T10:14:05.766Z,94742.84
2023-11-24T10:16:32.832Z,94742.56
2023-11-24T10:19:01.980Z,94760.88
2023-11-24T10:21:33.205Z,94722.94
2023-11-24T10:24:02.452Z,94753.00
2023-11-24T10:26:29.474Z,94735.09
2023-11-24T10:28:57.201Z,94737.44
2023-11-24T10:31:24.594Z,94718.41
2023-11-24T10:33:52.487Z,94721.53
2023-11-24T10:36:26.852Z,94719.53
2023-11-24T10:39:03.803Z,94713.16
2023-11-24T10:41:30.778Z,94717.09
2023-11-24T10:43:58.521Z,94718.59
2023-11-24T10:46:32.107Z,94694.38
2023-11-24T10:49:07.553Z,94709.44
2023-11-24T10:52:15.062Z,94703.75
2023-11-24T10:54:50.100Z,94691.53
2023-11-24T10:57:18.008Z,94697.63
2023-11-24T10:59:45.522Z,94637.91
2023-11-24T11:02:15.935Z,94680.41
2023-11-24T11:05:01.820Z,94672.75
2023-11-24T11:07:55.561Z,94675.38
2023-11-24T11:10:30.408Z,94672.31
2023-11-24T11:12:59.040Z,94655.34
2023-11-24T11:15:26.965Z,94655.94
2023-11-24T11:18:15.202Z,94667.88
2023-11-24T11:20:43.084Z,94660.66
2023-11-24T11:23:24.483Z,94662.72
2023-11-24T11:25:53.759Z,94649.94
2023-11-24T11:28:25.381Z,94643.59
2023-11-24T11:30:57.050Z,94633.09
2023-11-24T11:33:24.206Z,94625.53
2023-11-24T11:36:03.301Z,94622.19
2023-11-24T11:38:50.612Z,94624.97
2023-11-24T11:41:36.795Z,94627.22
2023-11-24T11:44:17.786Z,94619.53
2023-11-24T11:47:05.045Z,94612.16
2023-11-24T11:49:36.153Z,94583.81
2023-11-24T11:52:08.033Z,94580.28
2023-11-24T11:54:37.959Z,94576.91
2023-11-24T11:57:05.210Z,94571.69
2023-11-24T11:59:31.993Z,94564.97
2023-11-24T12:01:59.005Z,94538.94
2023-11-24T12:04:31.763Z,94553.88
2023-11-24T12:06:58.607Z,94553.75
2023-11-24T12:09:26.868Z,94542.63
2023-11-24T12:11:53.626Z,94532.19
2023-11-24T12:14:21.491Z,94530.66
2023-11-24T12:16:48.493Z,94527.78
2023-11-24T12:19:15.915Z,94515.94
2023-11-24T12:21:43.628Z,94518.78
2023-11-24T12:24:15.433Z,94516.72
2023-11-24T12:26:46.267Z,94508.03
2023-11-24T12:29:15.002Z,94514.25
2023-11-24T12:31:43.848Z,94502.09
2023-11-24T12:34:18.148Z,94497.09
2023-11-24T12:36:46.525Z,94503.00
2023-11-24T12:39:14.727Z,94460.06
2023-11-24T12:41:45.626Z,94478.81
2023-11-24T12:44:14.643Z,94474.97
2023-11-24T12:46:41.858Z,94484.75
2023-11-24T12:49:11.142Z,94487.81
2023-11-24T12:51:42.654Z,94483.97
2023-11-24T12:54:10.135Z,94465.16
2023-11-24T12:56:36.933Z,94474.81
2023-11-24T12:59:04.713Z,94480.00
2023-11-24T13:01:32.708Z,94469.25
2023-11-24T13:04:01.176Z,94466.44
2023-11-24T13:06:28.530Z,94459.28
2023-11-24T13:08:55.515Z,94454.44
2023-11-24T13:11:22.506Z,94454.91
2023-11-24T13:13:50.376Z,94442.47
2023-11-24T13:16:17.225Z,94441.81
2023-11-24T13:18:44.091Z,94431.28
2023-11-24T13:21:10.943Z,94437.00
2023-11-24T13:23:38.863Z,94429.84
2023-11-24T13:26:06.695Z,94441.03
2023-11-24T13:28:33.797Z,94441.59
2023-11-24T13:31:00.726Z,94435.94
2023-11-24T13:33:27.545Z,94418.63
2023-11-24T13:35:54.290Z,94411.13
2023-11-24T13:38:21.057Z,94398.25
2023-11-24T13:40:47.894Z,94391.44
2023-11-24T13:43:20.622Z,94381.63
2023-11-24T13:45:47.509Z,94401.44
2023-11-24T13:48:15.600Z,94397.59
2023-11-24T13:50:42.336Z,94409.56
2023-11-24T13:53:13.375Z,94400.16
2023-11-24T13:55:45.073Z,94393.75
2023-11-24T13:58:12.380Z,94403.69
2023-11-24T14:00:39.102Z,94401.66
2023-11-24T14:03:07.365Z,94387.44
2023-11-24T14:05:34.347Z,94385.34
2023-11-24T14:08:04.549Z,94405.16
2023-11-24T14:10:31.322Z,94395.44
2023-11-24T14:12:58.751Z,94363.66
2023-11-24T14:15:34.691Z,94379.03
2023-11-24T14:18:03.076Z,94390.19
2023-11-24T14:20:29.886Z,94366.66
2023-11-24T14:23:37.834Z,94356.47
2023-11-24T14:26:04.914Z,94369.47
2023-11-24T14:28:33.320Z,94357.09
2023-11-24T14:31:03.825Z,94368.28
2023-11-24T14:33:31.875Z,94362.75
2023-11-24T14:35:59.327Z,94359.38
2023-11-24T14:38:26.107Z,94369.94
2023-11-24T14:40:53.071Z,94370.44
2023-11-24T14:43:20.889Z,94364.75
2023-11-24T14:45:48.383Z,94349.41
2023-11-24T14:48:21.765Z,94358.13
2023-11-24T14:50:49.070Z,94381.28
2023-11-24T14:53:15.978Z,94410.84
2023-11-24T14:55:46.491Z,94371.38
2023-11-24T14:58:15.324Z,94412.25
2023-11-24T15:00:43.055Z,94403.13
2023-11-24T15:03:12.921Z,94439.75
2023-11-24T15:05:42.086Z,94439.69
2023-11-24T15:08:12.657Z,94436.97
2023-11-24T15:10:45.425Z,94434.16
2023-11-24T15:13:19.457Z,94424.59
2023-11-24T15:15:46.192Z,94419.41
2023-11-24T15:18:12.896Z,94407.84
2023-11-24T15:20:44.836Z,94385.78
2023-11-24T15:23:12.951Z,94412.22
2023-11-24T15:25:49.516Z,94405.22
2023-11-24T15:28:22.438Z,94394.06
2023-11-24T15:30:58.694Z,94398.22
2023-11-24T15:33:34.392Z,94368.94
2023-11-24T15:36:40.027Z,94379.50
2023-11-24T15:42:18.451Z,94394.22
2023-11-24T15:44:51.146Z,94438.22
2023-11-24T15:47:17.843Z,94421.31
2023-11-24T15:50:10.075Z,94445.94
2023-11-24T15:52:39.214Z,94445.22
2023-11-24T15:55:26.782Z,94443.56
2023-11-24T15:57:55.461Z,94449.28
2023-11-24T16:00:33.232Z,94434.28
2023-11-24T16:03:00.553Z,94420.78
2023-11-24T16:05:33.717Z,94435.34
2023-11-24T16:08:08.931Z,94423.06
2023-11-24T16:10:39.517Z,94427.25
2023-11-24T16:13:07.591Z,94433.09
2023-11-24T16:15:34.320Z,94417.47
2023-11-24T16:18:01.034Z,94419.47
2023-11-24T16:20:29.454Z,94420.28
2023-11-24T16:22:56.266Z,94406.66
2023-11-24T16:25:23.590Z,94420.84
2023-11-24T16:27:50.444Z,94414.88
2023-11-24T16:30:18.334Z,94421.66
2023-11-24T16:32:44.997Z,94407.47
2023-11-24T16:35:13.066Z,94419.91
2023-11-24T16:37:40.060Z,94431.25
2023-11-24T16:40:10.672Z,94410.50
2023-11-24T16:42:37.570Z,94427.59
2023-11-24T16:45:08.126Z,94425.84
2023-11-24T16:47:34.963Z,94431.16
2023-11-24T16:50:04.095Z,94437.69
2023-11-24T16:52:34.559Z,94429.47
2023-11-24T16:55:01.552Z,94429.91
2023-11-24T16:57:29.898Z,94436.16
2023-11-24T16:59:59.446Z,94431.25
2023-11-24T17:02:27.857Z,94432.97
2023-11-24T17:04:54.714Z,94430.06
2023-11-24T17:07:21.822Z,94445.34
2023-11-24T17:09:53.068Z,94439.22
2023-11-24T17:12:20.682Z,94445.22
2023-11-24T17:14:47.457Z,94429.00
2023-11-24T17:17:14.400Z,94429.03
2023-11-24T17:19:41.109Z,94438.22
2023-11-24T17:22:08.080Z,94444.53
2023-11-24T17:24:35.348Z,94449.28
2023-11-24T17:27:02.137Z,94468.69
2023-11-24T17:29:28.914Z,94496.41
2023-11-24T17:31:56.773Z,94514.22
2023-11-24T17:34:23.491Z,94518.06
2023-11-24T17:36:50.646Z,94493.69
2023-11-24T17:39:19.071Z,94517.63
2023-11-24T17:41:45.739Z,94500.09
2023-11-24T17:44:13.364Z,94502.00
2023-11-24T17:46:40.732Z,94488.16
2023-11-24T17:49:08.154Z,94490.56
2023-11-24T17:51:35.053Z,94479.78
2023-11-24T17:54:01.941Z,94485.47
2023-11-24T17:56:29.747Z,94495.00
2023-11-24T17:58:57.490Z,94498.63
2023-11-24T18:01:28.523Z,94513.88
2023-11-24T18:03:55.542Z,94508.69
2023-11-24T18:06:22.353Z,94496.84
2023-11-24T18:08:49.809Z,94505.97
2023-11-24T18:11:16.573Z,94494.41
2023-11-24T18:13:43.813Z,94505.00
2023-11-24T18:16:12.067Z,94523.41
2023-11-24T18:18:41.552Z,94521.88
2023-11-24T18:21:08.313Z,94525.53
2023-11-24T18:23:36.196Z,94515.41
2023-11-24T18:26:03.107Z,94517.69
2023-11-24T18:28:30.227Z,94514.38
2023-11-24T18:30:58.806Z,94511.31
2023-11-24T18:33:26.547Z,94522.69
2023-11-24T18:35:53.493Z,94497.38
2023-11-24T18:38:20.378Z,94517.47
2023-11-24T18:40:47.135Z,94515.16
2023-11-24T18:43:23.134Z,94500.69
2023-11-24T18:45:58.011Z,94491.41
2023-11-24T18:48:25.310Z,94507.38
2023-11-24T18:50:52.070Z,94501.25
2023-11-24T18:53:18.787Z,94501.19
2023-11-24T18:55:45.507Z,94485.22
2023-11-24T18:58:12.220Z,94501.09
2023-11-24T19:00:39.014Z,94501.00
2023-11-24T19:03:05.907Z,94508.88
2023-11-24T19:05:33.112Z,94512.25
2023-11-24T19:08:02.940Z,94506.72
2023-11-24T19:10:29.763Z,94530.34
2023-11-24T19:12:56.605Z,94522.72
2023-11-24T19:15:23.369Z,94509.41
2023-11-24T19:17:50.228Z,94526.34
2023-11-24T19:20:19.126Z,94507.41
2023-11-24T19:22:46.469Z,94521.56
2023-11-24T19:25:13.345Z,94522.13
2023-11-24T19:27:40.123Z,94502.88
2023-11-24T19:30:07.957Z,94493.78
2023-11-24T19:32:34.764Z,94516.47
2023-11-24T19:35:01.590Z,94508.94
2023-11-24T19:37:28.371Z,94524.72
2023-11-24T19:39:55.101Z,94490.69
2023-11-24T19:42:22.819Z,94516.19
2023-11-24T19:44:49.597Z,94531.56
2023-11-24T19:47:16.330Z,94527.34
2023-11-24T19:49:43.029Z,94535.63
2023-11-24T19:52:10.653Z,94542.81
2023-11-24T19:54:37.485Z,94528.72
2023-11-24T19:57:04.530Z,94526.66
2023-11-24T19:59:34.401Z,94516.81
2023-11-24T20:02:01.273Z,94519.09
2023-11-24T20:04:29.105Z,94521.34
2023-11-24T20:06:55.859Z,94529.28
2023-11-24T20:09:23.796Z,94518.16
2023-11-24T20:11:54.426Z,94527.50
2023-11-24T20:14:21.190Z,94521.72
2023-11-24T20:16:49.108Z,94516.47
2023-11-24T20:19:16.157Z,94506.25
2023-11-24T20:21:43.225Z,94503.81
2023-11-24T20:24:11.454Z,94500.88
2023-11-24T20:26:38.728Z,94489.63
2023-11-24T20:29:05.502Z,94502.84
2023-11-24T20:31:32.382Z,94500.47
2023-11-24T20:33:59.281Z,94497.25
2023-11-24T20:36:26.030Z,94509.66
2023-11-24T20:38:58.718Z,94522.97
2023-11-24T20:41:25.544Z,94504.47
2023-11-24T20:43:55.237Z,94509.72
2023-11-24T20:46:22.463Z,94522.19
2023-11-24T20:48:49.257Z,94501.25
2023-11-24T20:51:17.538Z,94511.00
2023-11-24T20:53:44.420Z,94508.41
2023-11-24T20:56:11.933Z,94513.16
2023-11-24T20:58:39.727Z,94514.09
2023-11-24T21:01:06.964Z,94514.72
2023-11-24T21:03:34.061Z,94488.50
2023-11-24T21:06:02.750Z,94514.38
2023-11-24T21:08:29.437Z,94517.88
2023-11-24T21:10:56.410Z,94502.09
2023-11-24T21:13:23.774Z,94514.69
2023-11-24T21:15:51.034Z,94509.47
2023-11-24T21:18:20.454Z,94517.41
2023-11-24T21:20:48.919Z,94491.53
2023-11-24T21:23:16.844Z,94490.63
2023-11-24T21:25:44.554Z,94499.31
2023-11-24T21:28:12.025Z,94489.00
2023-11-24T21:30:40.772Z,94478.00
2023-11-24T21:33:08.506Z,94479.84
2023-11-24T21:35:35.319Z,94470.78
2023-11-24T21:38:04.913Z,94460.94
2023-11-24T21:40:32.469Z,94457.53
2023-11-24T21:42:59.393Z,94454.22
2023-11-24T21:45:26.557Z,94452.09
2023-11-24T21:47:54.990Z,94444.16
2023-11-24T21:50:23.750Z,94455.16
2023-11-24T21:52:50.477Z,94448.53
2023-11-24T21:55:17.577Z,94446.94
2023-11-24T21:57:44.265Z,94431.63
2023-11-24T22:00:16.353Z,94434.75
2023-11-24T22:02:50.865Z,94419.09
2023-11-24T22:05:17.589Z,94420.09
2023-11-24T22:07:44.669Z,94426.25
2023-11-24T22:10:11.910Z,94418.72
2023-11-24T22:12:39.280Z,94419.75
2023-11-24T22:15:08.852Z,94407.38
2023-11-24T22:17:36.259Z,94420.56
2023-11-24T22:20:12.177Z,94417.38
2023-11-24T22:22:40.307Z,94422.28
2023-11-24T22:25:07.871Z,94407.31
2023-11-24T22:27:35.551Z,94411.91
2023-11-24T22:30:06.344Z,94415.47
2023-11-24T22:32:33.762Z,94410.25
2023-11-24T22:35:01.077Z,94399.22
2023-11-24T22:37:28.333Z,94403.84
2023-11-24T22:39:55.044Z,94402.47
2023-11-24T22:42:23.420Z,94394.53
2023-11-24T22:44:51.488Z,94403.09
2023-11-24T22:47:19.466Z,94400.00
2023-11-24T22:49:46.415Z,94395.16
2023-11-24T22:52:13.247Z,94398.19
2023-11-24T22:54:40.591Z,94397.41
2023-11-24T22:57:07.710Z,94394.78
2023-11-24T22:59:34.537Z,94399.03
2023-11-24T23:02:01.749Z,94398.66
2023-11-24T23:04:28.580Z,94400.41
2023-11-24T23:06:55.350Z,94388.50
2023-11-24T23:09:23.074Z,94394.38
2023-11-24T23:11:50.402Z,94384.53
2023-11-24T23:14:17.218Z,94385.91
2023-11-24T23:16:45.331Z,94379.41
2023-11-24T23:19:13.266Z,94372.25
2023-11-24T23:21:42.272Z,94365.84
2023-11-24T23:24:12.219Z,94357.78
2023-11-24T23:26:39.989Z,94357.38
2023-11-24T23:29:08.159Z,94363.31
2023-11-24T23:31:35.183Z,94367.63
2023-11-24T23:34:02.095Z,94353.41
2023-11-24T23:36:29.835Z,94348.34
2023-11-24T23:38:56.810Z,94352.69
2023-11-24T23:41:23.887Z,94355.47
2023-11-24T23:43:53.443Z,94341.34
2023-11-24T23:46:20.680Z,94337.72
2023-11-24T23:48:47.775Z,94332.41
2023-11-24T23:51:18.384Z,94319.22
2023-11-24T23:53:45.113Z,94332.44
2023-11-24T23:56:14.056Z,94325.13
2023-11-24T23:58:42.209Z,94322.03
